sensor_id;sensor_type;location;lat;lon;timestamp;P1;durP1;ratioP1;P2;durP2;ratioP2
24637;SDS011;12773;50.162;8.548;2024-03-29T00:01:53;6.60;;;1.22;;
24637;SDS011;12773;50.162;8.548;2024-03-29T00:04:41;3.85;;;1.10;;
24637;SDS011;12773;50.162;8.548;2024-03-29T00:07:28;4.22;;;1.10;;
24637;SDS011;12773;50.162;8.548;2024-03-29T00:10:16;4.17;;;0.90;;
24637;SDS011;12773;50.162;8.548;2024-03-29T00:13:05;3.75;;;1.20;;
24637;SDS011;12773;50.162;8.548;2024-03-29T00:15:52;7.08;;;1.10;;
24637;SDS011;12773;50.162;8.548;2024-03-29T00:18:40;2.87;;;1.00;;
24637;SDS011;12773;50.162;8.548;2024-03-29T00:21:27;7.15;;;1.32;;
24637;SDS011;12773;50.162;8.548;2024-03-29T00:24:15;4.22;;;1.40;;
24637;SDS011;12773;50.162;8.548;2024-03-29T00:27:03;5.72;;;1.35;;
24637;SDS011;12773;50.162;8.548;2024-03-29T00:29:51;5.80;;;1.20;;
24637;SDS011;12773;50.162;8.548;2024-03-29T00:32:41;2.95;;;1.12;;
24637;SDS011;12773;50.162;8.548;2024-03-29T00:35:29;3.02;;;1.15;;
24637;SDS011;12773;50.162;8.548;2024-03-29T00:38:17;8.53;;;1.40;;
24637;SDS011;12773;50.162;8.548;2024-03-29T00:41:04;5.10;;;1.25;;
24637;SDS011;12773;50.162;8.548;2024-03-29T00:43:51;4.95;;;1.30;;
24637;SDS011;12773;50.162;8.548;2024-03-29T00:46:39;5.03;;;1.37;;
24637;SDS011;12773;50.162;8.548;2024-03-29T00:49:27;4.75;;;1.22;;
24637;SDS011;12773;50.162;8.548;2024-03-29T00:52:15;5.30;;;1.20;;
24637;SDS011;12773;50.162;8.548;2024-03-29T00:55:03;3.98;;;1.30;;
24637;SDS011;12773;50.162;8.548;2024-03-29T00:57:51;6.97;;;1.90;;
24637;SDS011;12773;50.162;8.548;2024-03-29T01:00:39;6.65;;;2.02;;
24637;SDS011;12773;50.162;8.548;2024-03-29T01:03:26;9.50;;;1.65;;
24637;SDS011;12773;50.162;8.548;2024-03-29T01:06:15;6.20;;;1.77;;
24637;SDS011;12773;50.162;8.548;2024-03-29T01:09:03;4.78;;;1.72;;
24637;SDS011;12773;50.162;8.548;2024-03-29T01:11:51;3.27;;;1.55;;
24637;SDS011;12773;50.162;8.548;2024-03-29T01:14:39;3.83;;;1.90;;
24637;SDS011;12773;50.162;8.548;2024-03-29T01:17:26;4.92;;;1.47;;
24637;SDS011;12773;50.162;8.548;2024-03-29T01:20:15;4.78;;;1.55;;
24637;SDS011;12773;50.162;8.548;2024-03-29T01:23:03;7.97;;;1.90;;
24637;SDS011;12773;50.162;8.548;2024-03-29T01:25:50;3.72;;;1.65;;
24637;SDS011;12773;50.162;8.548;2024-03-29T01:28:38;10.68;;;2.10;;
24637;SDS011;12773;50.162;8.548;2024-03-29T01:31:25;6.53;;;1.40;;
24637;SDS011;12773;50.162;8.548;2024-03-29T01:34:12;5.87;;;1.80;;
24637;SDS011;12773;50.162;8.548;2024-03-29T01:36:59;5.35;;;1.80;;
24637;SDS011;12773;50.162;8.548;2024-03-29T01:39:47;5.83;;;1.85;;
24637;SDS011;12773;50.162;8.548;2024-03-29T01:42:35;4.90;;;1.40;;
24637;SDS011;12773;50.162;8.548;2024-03-29T01:45:22;5.12;;;1.50;;
24637;SDS011;12773;50.162;8.548;2024-03-29T01:48:10;6.25;;;1.32;;
24637;SDS011;12773;50.162;8.548;2024-03-29T01:50:58;3.98;;;1.20;;
24637;SDS011;12773;50.162;8.548;2024-03-29T01:53:47;4.42;;;1.40;;
24637;SDS011;12773;50.162;8.548;2024-03-29T01:56:36;3.10;;;1.10;;
24637;SDS011;12773;50.162;8.548;2024-03-29T01:59:25;5.58;;;1.60;;
24637;SDS011;12773;50.162;8.548;2024-03-29T02:02:14;6.78;;;1.20;;
24637;SDS011;12773;50.162;8.548;2024-03-29T02:05:03;3.87;;;1.27;;
24637;SDS011;12773;50.162;8.548;2024-03-29T02:07:51;3.58;;;0.90;;
24637;SDS011;12773;50.162;8.548;2024-03-29T02:10:40;4.00;;;1.25;;
24637;SDS011;12773;50.162;8.548;2024-03-29T02:13:28;4.58;;;1.30;;
24637;SDS011;12773;50.162;8.548;2024-03-29T02:16:15;6.53;;;1.10;;
24637;SDS011;12773;50.162;8.548;2024-03-29T02:19:03;5.22;;;1.30;;
24637;SDS011;12773;50.162;8.548;2024-03-29T02:21:51;5.22;;;1.12;;
24637;SDS011;12773;50.162;8.548;2024-03-29T02:24:42;5.50;;;1.32;;
24637;SDS011;12773;50.162;8.548;2024-03-29T02:27:29;3.60;;;1.10;;
24637;SDS011;12773;50.162;8.548;2024-03-29T02:30:17;8.93;;;1.50;;
24637;SDS011;12773;50.162;8.548;2024-03-29T02:33:05;3.62;;;1.30;;
24637;SDS011;12773;50.162;8.548;2024-03-29T02:35:52;7.05;;;1.37;;
24637;SDS011;12773;50.162;8.548;2024-03-29T02:38:39;2.30;;;1.17;;
24637;SDS011;12773;50.162;8.548;2024-03-29T02:41:27;1.70;;;0.90;;
24637;SDS011;12773;50.162;8.548;2024-03-29T02:44:16;4.25;;;1.47;;
24637;SDS011;12773;50.162;8.548;2024-03-29T02:47:03;4.75;;;1.32;;
24637;SDS011;12773;50.162;8.548;2024-03-29T02:49:51;5.72;;;1.25;;
24637;SDS011;12773;50.162;8.548;2024-03-29T02:52:38;7.33;;;1.20;;
24637;SDS011;12773;50.162;8.548;2024-03-29T02:55:26;7.22;;;1.60;;
24637;SDS011;12773;50.162;8.548;2024-03-29T02:58:13;3.58;;;1.57;;
24637;SDS011;12773;50.162;8.548;2024-03-29T03:01:08;8.10;;;1.10;;
24637;SDS011;12773;50.162;8.548;2024-03-29T03:03:55;3.25;;;1.00;;
24637;SDS011;12773;50.162;8.548;2024-03-29T03:06:43;4.87;;;1.27;;
24637;SDS011;12773;50.162;8.548;2024-03-29T03:09:30;4.75;;;1.27;;
24637;SDS011;12773;50.162;8.548;2024-03-29T03:12:36;6.85;;;1.30;;
24637;SDS011;12773;50.162;8.548;2024-03-29T03:15:23;9.83;;;1.57;;
24637;SDS011;12773;50.162;8.548;2024-03-29T03:18:11;5.60;;;1.25;;
24637;SDS011;12773;50.162;8.548;2024-03-29T03:20:59;5.08;;;1.20;;
24637;SDS011;12773;50.162;8.548;2024-03-29T03:23:46;4.50;;;1.25;;
24637;SDS011;12773;50.162;8.548;2024-03-29T03:26:34;8.08;;;1.22;;
24637;SDS011;12773;50.162;8.548;2024-03-29T03:29:22;6.50;;;1.42;;
24637;SDS011;12773;50.162;8.548;2024-03-29T03:32:10;7.08;;;1.30;;
24637;SDS011;12773;50.162;8.548;2024-03-29T03:34:57;3.52;;;1.35;;
24637;SDS011;12773;50.162;8.548;2024-03-29T03:37:45;7.80;;;1.45;;
24637;SDS011;12773;50.162;8.548;2024-03-29T03:40:32;3.37;;;1.07;;
24637;SDS011;12773;50.162;8.548;2024-03-29T03:43:20;2.85;;;1.30;;
24637;SDS011;12773;50.162;8.548;2024-03-29T03:46:07;3.42;;;0.90;;
24637;SDS011;12773;50.162;8.548;2024-03-29T03:48:54;3.72;;;1.20;;
24637;SDS011;12773;50.162;8.548;2024-03-29T03:51:42;3.70;;;1.22;;
24637;SDS011;12773;50.162;8.548;2024-03-29T03:54:29;3.83;;;1.17;;
24637;SDS011;12773;50.162;8.548;2024-03-29T03:57:17;3.55;;;1.07;;
24637;SDS011;12773;50.162;8.548;2024-03-29T04:00:05;2.62;;;1.00;;
24637;SDS011;12773;50.162;8.548;2024-03-29T04:02:53;4.50;;;1.20;;
24637;SDS011;12773;50.162;8.548;2024-03-29T04:05:42;4.12;;;0.90;;
24637;SDS011;12773;50.162;8.548;2024-03-29T04:08:30;3.72;;;1.45;;
24637;SDS011;12773;50.162;8.548;2024-03-29T04:11:18;4.78;;;1.35;;
24637;SDS011;12773;50.162;8.548;2024-03-29T04:14:05;5.42;;;1.42;;
24637;SDS011;12773;50.162;8.548;2024-03-29T04:16:53;8.03;;;1.00;;
24637;SDS011;12773;50.162;8.548;2024-03-29T04:19:40;4.42;;;1.42;;
24637;SDS011;12773;50.162;8.548;2024-03-29T04:22:28;3.00;;;1.20;;
24637;SDS011;12773;50.162;8.548;2024-03-29T04:25:15;5.25;;;1.30;;
24637;SDS011;12773;50.162;8.548;2024-03-29T04:28:02;5.15;;;1.30;;
24637;SDS011;12773;50.162;8.548;2024-03-29T04:31:00;4.28;;;1.25;;
24637;SDS011;12773;50.162;8.548;2024-03-29T04:33:43;5.58;;;1.50;;
24637;SDS011;12773;50.162;8.548;2024-03-29T04:36:30;6.58;;;1.40;;
24637;SDS011;12773;50.162;8.548;2024-03-29T04:39:18;1.98;;;1.07;;
24637;SDS011;12773;50.162;8.548;2024-03-29T04:42:05;6.17;;;1.40;;
24637;SDS011;12773;50.162;8.548;2024-03-29T04:44:53;2.20;;;1.07;;
24637;SDS011;12773;50.162;8.548;2024-03-29T04:47:40;6.50;;;1.60;;
24637;SDS011;12773;50.162;8.548;2024-03-29T04:50:27;4.50;;;1.27;;
24637;SDS011;12773;50.162;8.548;2024-03-29T04:53:15;6.97;;;1.55;;
24637;SDS011;12773;50.162;8.548;2024-03-29T04:56:02;3.62;;;1.27;;
24637;SDS011;12773;50.162;8.548;2024-03-29T04:58:50;4.28;;;1.30;;
24637;SDS011;12773;50.162;8.548;2024-03-29T05:01:38;4.80;;;1.70;;
24637;SDS011;12773;50.162;8.548;2024-03-29T05:04:26;7.37;;;1.50;;
24637;SDS011;12773;50.162;8.548;2024-03-29T05:07:14;7.92;;;1.65;;
24637;SDS011;12773;50.162;8.548;2024-03-29T05:10:02;3.67;;;1.80;;
24637;SDS011;12773;50.162;8.548;2024-03-29T05:12:53;4.12;;;1.60;;
24637;SDS011;12773;50.162;8.548;2024-03-29T05:15:40;5.60;;;1.37;;
24637;SDS011;12773;50.162;8.548;2024-03-29T05:18:28;2.33;;;1.37;;
24637;SDS011;12773;50.162;8.548;2024-03-29T05:21:16;6.47;;;1.70;;
24637;SDS011;12773;50.162;8.548;2024-03-29T05:24:03;2.60;;;1.32;;
24637;SDS011;12773;50.162;8.548;2024-03-29T05:26:51;4.55;;;1.55;;
24637;SDS011;12773;50.162;8.548;2024-03-29T05:29:38;6.60;;;1.60;;
24637;SDS011;12773;50.162;8.548;2024-03-29T05:32:26;7.15;;;1.62;;
24637;SDS011;12773;50.162;8.548;2024-03-29T05:35:14;7.00;;;1.60;;
24637;SDS011;12773;50.162;8.548;2024-03-29T05:38:02;7.50;;;1.77;;
24637;SDS011;12773;50.162;8.548;2024-03-29T05:40:49;5.47;;;1.70;;
24637;SDS011;12773;50.162;8.548;2024-03-29T05:43:38;4.97;;;1.42;;
24637;SDS011;12773;50.162;8.548;2024-03-29T05:46:26;6.97;;;1.67;;
24637;SDS011;12773;50.162;8.548;2024-03-29T05:49:14;4.10;;;1.60;;
24637;SDS011;12773;50.162;8.548;2024-03-29T05:52:02;3.30;;;1.70;;
24637;SDS011;12773;50.162;8.548;2024-03-29T05:54:50;10.55;;;1.50;;
24637;SDS011;12773;50.162;8.548;2024-03-29T05:57:39;5.55;;;1.60;;
24637;SDS011;12773;50.162;8.548;2024-03-29T06:00:30;4.75;;;1.42;;
24637;SDS011;12773;50.162;8.548;2024-03-29T06:03:19;7.97;;;1.92;;
24637;SDS011;12773;50.162;8.548;2024-03-29T06:06:07;5.50;;;1.55;;
24637;SDS011;12773;50.162;8.548;2024-03-29T06:08:56;5.60;;;1.85;;
24637;SDS011;12773;50.162;8.548;2024-03-29T06:11:43;3.75;;;1.55;;
24637;SDS011;12773;50.162;8.548;2024-03-29T06:14:30;5.37;;;1.55;;
24637;SDS011;12773;50.162;8.548;2024-03-29T06:17:36;5.92;;;1.60;;
24637;SDS011;12773;50.162;8.548;2024-03-29T06:20:24;5.20;;;1.32;;
24637;SDS011;12773;50.162;8.548;2024-03-29T06:23:12;3.90;;;1.30;;
24637;SDS011;12773;50.162;8.548;2024-03-29T06:26:00;5.15;;;1.50;;
24637;SDS011;12773;50.162;8.548;2024-03-29T06:28:47;5.47;;;1.37;;
24637;SDS011;12773;50.162;8.548;2024-03-29T06:31:35;7.08;;;1.87;;
24637;SDS011;12773;50.162;8.548;2024-03-29T06:34:23;4.00;;;1.20;;
24637;SDS011;12773;50.162;8.548;2024-03-29T06:37:10;2.17;;;1.22;;
24637;SDS011;12773;50.162;8.548;2024-03-29T06:39:57;4.58;;;1.30;;
24637;SDS011;12773;50.162;8.548;2024-03-29T06:42:45;4.47;;;1.55;;
24637;SDS011;12773;50.162;8.548;2024-03-29T06:45:33;7.08;;;1.45;;
24637;SDS011;12773;50.162;8.548;2024-03-29T06:48:20;5.75;;;1.67;;
24637;SDS011;12773;50.162;8.548;2024-03-29T06:51:08;9.00;;;1.70;;
24637;SDS011;12773;50.162;8.548;2024-03-29T06:53:56;3.15;;;1.37;;
24637;SDS011;12773;50.162;8.548;2024-03-29T06:56:44;7.50;;;1.70;;
24637;SDS011;12773;50.162;8.548;2024-03-29T06:59:31;6.17;;;1.85;;
24637;SDS011;12773;50.162;8.548;2024-03-29T07:02:19;5.75;;;1.80;;
24637;SDS011;12773;50.162;8.548;2024-03-29T07:05:06;4.85;;;1.57;;
24637;SDS011;12773;50.162;8.548;2024-03-29T07:07:56;3.20;;;1.57;;
24637;SDS011;12773;50.162;8.548;2024-03-29T07:10:45;11.85;;;1.75;;
24637;SDS011;12773;50.162;8.548;2024-03-29T07:13:32;5.58;;;2.10;;
24637;SDS011;12773;50.162;8.548;2024-03-29T07:16:20;6.45;;;1.60;;
24637;SDS011;12773;50.162;8.548;2024-03-29T07:19:07;3.98;;;1.90;;
24637;SDS011;12773;50.162;8.548;2024-03-29T07:21:55;5.35;;;1.80;;
24637;SDS011;12773;50.162;8.548;2024-03-29T07:24:42;4.58;;;2.00;;
24637;SDS011;12773;50.162;8.548;2024-03-29T07:27:31;4.92;;;1.95;;
24637;SDS011;12773;50.162;8.548;2024-03-29T07:30:20;5.60;;;1.75;;
24637;SDS011;12773;50.162;8.548;2024-03-29T07:33:08;5.75;;;1.80;;
24637;SDS011;12773;50.162;8.548;2024-03-29T07:35:55;3.85;;;1.77;;
24637;SDS011;12773;50.162;8.548;2024-03-29T07:38:43;6.03;;;2.58;;
24637;SDS011;12773;50.162;8.548;2024-03-29T07:41:30;6.35;;;2.90;;
24637;SDS011;12773;50.162;8.548;2024-03-29T07:44:18;6.72;;;2.27;;
24637;SDS011;12773;50.162;8.548;2024-03-29T07:47:06;3.90;;;1.90;;
24637;SDS011;12773;50.162;8.548;2024-03-29T07:49:53;5.28;;;2.50;;
24637;SDS011;12773;50.162;8.548;2024-03-29T07:52:40;5.85;;;2.77;;
24637;SDS011;12773;50.162;8.548;2024-03-29T07:55:30;5.58;;;2.77;;
24637;SDS011;12773;50.162;8.548;2024-03-29T07:58:17;4.53;;;2.30;;
24637;SDS011;12773;50.162;8.548;2024-03-29T08:01:05;7.03;;;2.27;;
24637;SDS011;12773;50.162;8.548;2024-03-29T08:03:52;6.05;;;1.65;;
24637;SDS011;12773;50.162;8.548;2024-03-29T08:06:40;4.55;;;1.60;;
24637;SDS011;12773;50.162;8.548;2024-03-29T08:09:28;5.70;;;2.02;;
24637;SDS011;12773;50.162;8.548;2024-03-29T08:12:16;11.80;;;2.10;;
24637;SDS011;12773;50.162;8.548;2024-03-29T08:15:04;6.92;;;1.95;;
24637;SDS011;12773;50.162;8.548;2024-03-29T08:17:52;4.40;;;2.50;;
24637;SDS011;12773;50.162;8.548;2024-03-29T08:20:39;7.65;;;2.30;;
24637;SDS011;12773;50.162;8.548;2024-03-29T08:23:26;6.22;;;2.55;;
24637;SDS011;12773;50.162;8.548;2024-03-29T08:26:14;8.58;;;2.55;;
24637;SDS011;12773;50.162;8.548;2024-03-29T08:29:02;6.55;;;2.70;;
24637;SDS011;12773;50.162;8.548;2024-03-29T08:31:50;8.40;;;2.33;;
24637;SDS011;12773;50.162;8.548;2024-03-29T08:34:37;8.35;;;2.62;;
24637;SDS011;12773;50.162;8.548;2024-03-29T08:37:25;8.40;;;3.15;;
24637;SDS011;12773;50.162;8.548;2024-03-29T08:40:12;5.95;;;3.00;;
24637;SDS011;12773;50.162;8.548;2024-03-29T08:42:59;8.43;;;3.33;;
24637;SDS011;12773;50.162;8.548;2024-03-29T08:45:47;9.75;;;3.40;;
24637;SDS011;12773;50.162;8.548;2024-03-29T08:48:34;6.62;;;3.50;;
24637;SDS011;12773;50.162;8.548;2024-03-29T08:51:25;8.93;;;3.35;;
24637;SDS011;12773;50.162;8.548;2024-03-29T08:54:12;7.87;;;3.37;;
24637;SDS011;12773;50.162;8.548;2024-03-29T08:57:00;5.42;;;2.92;;
24637;SDS011;12773;50.162;8.548;2024-03-29T08:59:49;9.48;;;3.33;;
24637;SDS011;12773;50.162;8.548;2024-03-29T09:02:37;8.60;;;3.05;;
24637;SDS011;12773;50.162;8.548;2024-03-29T09:05:25;5.80;;;2.98;;
24637;SDS011;12773;50.162;8.548;2024-03-29T09:08:14;8.28;;;2.80;;
24637;SDS011;12773;50.162;8.548;2024-03-29T09:11:01;5.10;;;2.72;;
24637;SDS011;12773;50.162;8.548;2024-03-29T09:13:49;9.35;;;2.70;;
24637;SDS011;12773;50.162;8.548;2024-03-29T09:16:37;8.63;;;2.40;;
24637;SDS011;12773;50.162;8.548;2024-03-29T09:19:26;6.10;;;2.35;;
24637;SDS011;12773;50.162;8.548;2024-03-29T09:22:13;6.83;;;2.70;;
24637;SDS011;12773;50.162;8.548;2024-03-29T09:25:01;5.65;;;2.58;;
24637;SDS011;12773;50.162;8.548;2024-03-29T09:27:50;8.63;;;2.67;;
24637;SDS011;12773;50.162;8.548;2024-03-29T09:30:37;3.67;;;2.05;;
24637;SDS011;12773;50.162;8.548;2024-03-29T09:33:25;8.95;;;2.85;;
24637;SDS011;12773;50.162;8.548;2024-03-29T09:36:13;7.72;;;2.85;;
24637;SDS011;12773;50.162;8.548;2024-03-29T09:39:00;5.95;;;3.10;;
24637;SDS011;12773;50.162;8.548;2024-03-29T09:41:50;9.05;;;2.62;;
24637;SDS011;12773;50.162;8.548;2024-03-29T09:44:37;8.90;;;2.50;;
24637;SDS011;12773;50.162;8.548;2024-03-29T09:47:25;8.33;;;2.17;;
24637;SDS011;12773;50.162;8.548;2024-03-29T09:50:13;2.75;;;1.67;;
24637;SDS011;12773;50.162;8.548;2024-03-29T09:53:00;4.17;;;1.80;;
24637;SDS011;12773;50.162;8.548;2024-03-29T09:55:49;3.52;;;1.37;;
24637;SDS011;12773;50.162;8.548;2024-03-29T09:58:39;4.85;;;1.82;;
24637;SDS011;12773;50.162;8.548;2024-03-29T10:01:27;6.85;;;1.77;;
24637;SDS011;12773;50.162;8.548;2024-03-29T10:04:14;6.92;;;1.60;;
24637;SDS011;12773;50.162;8.548;2024-03-29T10:07:03;3.35;;;1.47;;
24637;SDS011;12773;50.162;8.548;2024-03-29T10:09:51;3.02;;;1.70;;
24637;SDS011;12773;50.162;8.548;2024-03-29T10:12:40;5.05;;;1.37;;
24637;SDS011;12773;50.162;8.548;2024-03-29T10:15:29;4.92;;;1.75;;
24637;SDS011;12773;50.162;8.548;2024-03-29T10:18:17;3.30;;;1.27;;
24637;SDS011;12773;50.162;8.548;2024-03-29T10:21:07;3.00;;;1.30;;
24637;SDS011;12773;50.162;8.548;2024-03-29T10:23:55;3.40;;;1.40;;
24637;SDS011;12773;50.162;8.548;2024-03-29T10:26:43;4.60;;;1.32;;
24637;SDS011;12773;50.162;8.548;2024-03-29T10:29:31;5.08;;;1.50;;
24637;SDS011;12773;50.162;8.548;2024-03-29T10:32:19;3.35;;;1.70;;
24637;SDS011;12773;50.162;8.548;2024-03-29T10:35:08;1.82;;;1.27;;
24637;SDS011;12773;50.162;8.548;2024-03-29T10:37:56;4.40;;;1.37;;
24637;SDS011;12773;50.162;8.548;2024-03-29T10:40:43;6.25;;;1.40;;
24637;SDS011;12773;50.162;8.548;2024-03-29T10:43:32;4.83;;;2.15;;
24637;SDS011;12773;50.162;8.548;2024-03-29T10:46:20;4.03;;;2.27;;
24637;SDS011;12773;50.162;8.548;2024-03-29T10:49:09;3.40;;;1.80;;
24637;SDS011;12773;50.162;8.548;2024-03-29T10:51:57;3.33;;;1.60;;
24637;SDS011;12773;50.162;8.548;2024-03-29T10:54:48;7.33;;;2.10;;
24637;SDS011;12773;50.162;8.548;2024-03-29T10:57:40;5.58;;;2.35;;
24637;SDS011;12773;50.162;8.548;2024-03-29T11:00:32;4.97;;;2.30;;
24637;SDS011;12773;50.162;8.548;2024-03-29T11:06:31;4.47;;;2.60;;
24637;SDS011;12773;50.162;8.548;2024-03-29T11:09:22;5.35;;;2.55;;
24637;SDS011;12773;50.162;8.548;2024-03-29T11:12:11;5.08;;;2.50;;
24637;SDS011;12773;50.162;8.548;2024-03-29T11:15:03;8.33;;;2.70;;
24637;SDS011;12773;50.162;8.548;2024-03-29T11:17:54;6.03;;;2.80;;
24637;SDS011;12773;50.162;8.548;2024-03-29T11:20:42;6.90;;;3.20;;
24637;SDS011;12773;50.162;8.548;2024-03-29T11:23:34;6.50;;;2.30;;
24637;SDS011;12773;50.162;8.548;2024-03-29T11:26:21;11.43;;;3.12;;
24637;SDS011;12773;50.162;8.548;2024-03-29T11:29:20;5.33;;;2.75;;
24637;SDS011;12773;50.162;8.548;2024-03-29T11:32:09;4.87;;;2.77;;
24637;SDS011;12773;50.162;8.548;2024-03-29T11:34:57;5.55;;;2.60;;
24637;SDS011;12773;50.162;8.548;2024-03-29T11:37:45;8.93;;;2.98;;
24637;SDS011;12773;50.162;8.548;2024-03-29T11:40:34;8.25;;;2.70;;
24637;SDS011;12773;50.162;8.548;2024-03-29T11:43:22;5.03;;;2.80;;
24637;SDS011;12773;50.162;8.548;2024-03-29T11:46:10;5.17;;;2.92;;
24637;SDS011;12773;50.162;8.548;2024-03-29T11:48:58;8.65;;;2.95;;
24637;SDS011;12773;50.162;8.548;2024-03-29T11:51:46;7.87;;;3.40;;
24637;SDS011;12773;50.162;8.548;2024-03-29T11:54:38;7.83;;;3.30;;
24637;SDS011;12773;50.162;8.548;2024-03-29T11:57:26;9.53;;;3.70;;
24637;SDS011;12773;50.162;8.548;2024-03-29T12:00:13;9.55;;;3.90;;
24637;SDS011;12773;50.162;8.548;2024-03-29T12:03:01;8.73;;;3.80;;
24637;SDS011;12773;50.162;8.548;2024-03-29T12:05:50;7.85;;;3.80;;
24637;SDS011;12773;50.162;8.548;2024-03-29T12:08:40;8.65;;;3.70;;
24637;SDS011;12773;50.162;8.548;2024-03-29T12:11:28;8.80;;;3.60;;
24637;SDS011;12773;50.162;8.548;2024-03-29T12:14:17;7.95;;;3.60;;
24637;SDS011;12773;50.162;8.548;2024-03-29T12:17:11;4.92;;;3.10;;
24637;SDS011;12773;50.162;8.548;2024-03-29T12:19:58;6.47;;;3.60;;
24637;SDS011;12773;50.162;8.548;2024-03-29T12:22:51;9.00;;;3.60;;
24637;SDS011;12773;50.162;8.548;2024-03-29T12:25:39;6.65;;;3.72;;
24637;SDS011;12773;50.162;8.548;2024-03-29T12:28:26;8.45;;;3.83;;
24637;SDS011;12773;50.162;8.548;2024-03-29T12:31:16;16.07;;;6.75;;
24637;SDS011;12773;50.162;8.548;2024-03-29T12:34:03;16.27;;;6.12;;
24637;SDS011;12773;50.162;8.548;2024-03-29T12:36:54;8.70;;;4.58;;
24637;SDS011;12773;50.162;8.548;2024-03-29T12:39:43;8.35;;;3.83;;
24637;SDS011;12773;50.162;8.548;2024-03-29T12:42:31;10.75;;;4.50;;
24637;SDS011;12773;50.162;8.548;2024-03-29T12:45:19;7.30;;;4.95;;
24637;SDS011;12773;50.162;8.548;2024-03-29T12:48:13;9.43;;;5.47;;
24637;SDS011;12773;50.162;8.548;2024-03-29T12:51:08;10.93;;;4.67;;
24637;SDS011;12773;50.162;8.548;2024-03-29T12:54:00;6.72;;;3.80;;
24637;SDS011;12773;50.162;8.548;2024-03-29T12:56:50;6.22;;;3.85;;
24637;SDS011;12773;50.162;8.548;2024-03-29T12:59:39;11.35;;;5.53;;
24637;SDS011;12773;50.162;8.548;2024-03-29T13:02:28;7.87;;;4.60;;
24637;SDS011;12773;50.162;8.548;2024-03-29T13:05:15;10.40;;;4.53;;
24637;SDS011;12773;50.162;8.548;2024-03-29T13:08:03;9.55;;;4.40;;
24637;SDS011;12773;50.162;8.548;2024-03-29T13:10:53;9.48;;;4.37;;
24637;SDS011;12773;50.162;8.548;2024-03-29T13:13:41;6.20;;;4.17;;
24637;SDS011;12773;50.162;8.548;2024-03-29T13:16:28;6.72;;;4.20;;
24637;SDS011;12773;50.162;8.548;2024-03-29T13:19:18;9.10;;;4.00;;
24637;SDS011;12773;50.162;8.548;2024-03-29T13:22:05;17.27;;;8.80;;
24637;SDS011;12773;50.162;8.548;2024-03-29T13:24:53;16.25;;;6.67;;
24637;SDS011;12773;50.162;8.548;2024-03-29T13:27:40;11.73;;;6.50;;
24637;SDS011;12773;50.162;8.548;2024-03-29T13:30:28;6.87;;;4.53;;
24637;SDS011;12773;50.162;8.548;2024-03-29T13:33:16;9.35;;;5.22;;
24637;SDS011;12773;50.162;8.548;2024-03-29T13:36:03;6.20;;;3.85;;
24637;SDS011;12773;50.162;8.548;2024-03-29T13:38:51;9.50;;;4.35;;
24637;SDS011;12773;50.162;8.548;2024-03-29T13:41:40;9.30;;;4.37;;
24637;SDS011;12773;50.162;8.548;2024-03-29T13:44:28;8.60;;;4.35;;
24637;SDS011;12773;50.162;8.548;2024-03-29T13:47:18;10.58;;;4.65;;
24637;SDS011;12773;50.162;8.548;2024-03-29T13:50:05;9.63;;;4.62;;
24637;SDS011;12773;50.162;8.548;2024-03-29T13:52:53;9.98;;;4.30;;
24637;SDS011;12773;50.162;8.548;2024-03-29T13:55:41;8.80;;;4.65;;
24637;SDS011;12773;50.162;8.548;2024-03-29T13:58:29;6.53;;;3.87;;
24637;SDS011;12773;50.162;8.548;2024-03-29T14:01:17;8.18;;;4.62;;
24637;SDS011;12773;50.162;8.548;2024-03-29T14:04:04;7.10;;;4.37;;
24637;SDS011;12773;50.162;8.548;2024-03-29T14:06:52;10.08;;;4.95;;
24637;SDS011;12773;50.162;8.548;2024-03-29T14:09:43;9.30;;;4.50;;
24637;SDS011;12773;50.162;8.548;2024-03-29T14:12:34;7.25;;;4.40;;
24637;SDS011;12773;50.162;8.548;2024-03-29T14:15:21;10.23;;;4.37;;
24637;SDS011;12773;50.162;8.548;2024-03-29T14:18:09;10.45;;;5.25;;
24637;SDS011;12773;50.162;8.548;2024-03-29T14:20:56;9.85;;;4.80;;
24637;SDS011;12773;50.162;8.548;2024-03-29T14:23:44;9.60;;;5.00;;
24637;SDS011;12773;50.162;8.548;2024-03-29T14:26:31;10.63;;;5.70;;
24637;SDS011;12773;50.162;8.548;2024-03-29T14:29:19;9.13;;;5.12;;
24637;SDS011;12773;50.162;8.548;2024-03-29T14:32:07;9.15;;;4.80;;
24637;SDS011;12773;50.162;8.548;2024-03-29T14:34:54;7.58;;;4.45;;
24637;SDS011;12773;50.162;8.548;2024-03-29T14:37:43;6.22;;;4.33;;
24637;SDS011;12773;50.162;8.548;2024-03-29T14:40:31;7.25;;;4.53;;
24637;SDS011;12773;50.162;8.548;2024-03-29T14:43:19;9.15;;;4.50;;
24637;SDS011;12773;50.162;8.548;2024-03-29T14:46:07;8.38;;;4.58;;
24637;SDS011;12773;50.162;8.548;2024-03-29T14:48:54;8.00;;;4.03;;
24637;SDS011;12773;50.162;8.548;2024-03-29T14:51:41;6.15;;;4.17;;
24637;SDS011;12773;50.162;8.548;2024-03-29T14:54:31;7.45;;;4.50;;
24637;SDS011;12773;50.162;8.548;2024-03-29T14:57:18;7.83;;;4.12;;
24637;SDS011;12773;50.162;8.548;2024-03-29T15:00:07;10.30;;;4.40;;
24637;SDS011;12773;50.162;8.548;2024-03-29T15:02:56;8.80;;;4.30;;
24637;SDS011;12773;50.162;8.548;2024-03-29T15:05:43;9.23;;;4.33;;
24637;SDS011;12773;50.162;8.548;2024-03-29T15:08:31;9.75;;;4.10;;
24637;SDS011;12773;50.162;8.548;2024-03-29T15:11:18;7.50;;;3.87;;
24637;SDS011;12773;50.162;8.548;2024-03-29T15:14:07;6.20;;;3.77;;
24637;SDS011;12773;50.162;8.548;2024-03-29T15:16:56;7.10;;;4.30;;
24637;SDS011;12773;50.162;8.548;2024-03-29T15:19:47;10.03;;;5.05;;
24637;SDS011;12773;50.162;8.548;2024-03-29T15:22:36;8.90;;;4.83;;
24637;SDS011;12773;50.162;8.548;2024-03-29T15:25:25;9.45;;;4.67;;
24637;SDS011;12773;50.162;8.548;2024-03-29T15:28:12;9.33;;;4.45;;
24637;SDS011;12773;50.162;8.548;2024-03-29T15:31:23;5.17;;;3.30;;
24637;SDS011;12773;50.162;8.548;2024-03-29T15:34:07;9.30;;;3.60;;
24637;SDS011;12773;50.162;8.548;2024-03-29T15:36:56;9.15;;;3.30;;
24637;SDS011;12773;50.162;8.548;2024-03-29T15:39:43;9.78;;;3.15;;
24637;SDS011;12773;50.162;8.548;2024-03-29T15:42:30;7.25;;;3.30;;
24637;SDS011;12773;50.162;8.548;2024-03-29T15:45:19;10.38;;;3.42;;
24637;SDS011;12773;50.162;8.548;2024-03-29T15:48:07;8.58;;;4.78;;
24637;SDS011;12773;50.162;8.548;2024-03-29T15:50:55;7.25;;;4.25;;
24637;SDS011;12773;50.162;8.548;2024-03-29T15:53:42;12.75;;;4.33;;
24637;SDS011;12773;50.162;8.548;2024-03-29T15:56:30;14.28;;;5.60;;
24637;SDS011;12773;50.162;8.548;2024-03-29T15:59:19;13.53;;;6.92;;
24637;SDS011;12773;50.162;8.548;2024-03-29T16:02:08;5.58;;;2.98;;
24637;SDS011;12773;50.162;8.548;2024-03-29T16:04:56;6.30;;;2.30;;
24637;SDS011;12773;50.162;8.548;2024-03-29T16:07:44;6.08;;;2.10;;
24637;SDS011;12773;50.162;8.548;2024-03-29T16:10:32;5.90;;;1.90;;
24637;SDS011;12773;50.162;8.548;2024-03-29T16:13:23;3.80;;;1.85;;
24637;SDS011;12773;50.162;8.548;2024-03-29T16:16:12;3.50;;;1.80;;
24637;SDS011;12773;50.162;8.548;2024-03-29T16:18:59;3.77;;;1.67;;
24637;SDS011;12773;50.162;8.548;2024-03-29T16:21:48;4.25;;;1.32;;
24637;SDS011;12773;50.162;8.548;2024-03-29T16:24:36;2.33;;;1.22;;
24637;SDS011;12773;50.162;8.548;2024-03-29T16:27:23;2.22;;;1.17;;
24637;SDS011;12773;50.162;8.548;2024-03-29T16:30:10;3.33;;;1.20;;
24637;SDS011;12773;50.162;8.548;2024-03-29T16:32:58;3.52;;;1.37;;
24637;SDS011;12773;50.162;8.548;2024-03-29T16:35:46;3.80;;;1.40;;
24637;SDS011;12773;50.162;8.548;2024-03-29T16:38:34;3.65;;;1.77;;
24637;SDS011;12773;50.162;8.548;2024-03-29T16:41:23;3.35;;;1.47;;
24637;SDS011;12773;50.162;8.548;2024-03-29T16:44:10;4.12;;;1.70;;
24637;SDS011;12773;50.162;8.548;2024-03-29T16:46:58;3.35;;;1.65;;
24637;SDS011;12773;50.162;8.548;2024-03-29T16:49:46;3.62;;;1.80;;
24637;SDS011;12773;50.162;8.548;2024-03-29T16:52:33;4.15;;;1.90;;
24637;SDS011;12773;50.162;8.548;2024-03-29T16:55:21;4.37;;;1.70;;
24637;SDS011;12773;50.162;8.548;2024-03-29T16:58:09;4.47;;;1.90;;